Time;durP1;ratioP1;P1;durP2;ratioP2;P2;SDS_P1;SDS_P2;PMS_P1;PMS_P2;Temp;Humidity;BMP_temperature;BMP_pressure;BME280_temperature;BME280_humidity;BME280_pressure;Samples;Min_cycle;Max_cycle;Signal;HPM_P1;HPM_P2
2022/07/30 00:00:23;;;;;;;2.28;1.15;;;;;;;15.98;72.58;99778.97;5089154;28;20040;-49
2022/07/30 00:02:49;;;;;;;2.45;1.10;;;;;;;15.97;72.93;99789.53;5090828;28;20040;-53
2022/07/30 00:05:15;;;;;;;1.95;1.17;;;;;;;15.74;73.14;99758.50;5088851;28;20501;-49
2022/07/30 00:07:41;;;;;;;2.00;1.00;;;;;;;15.90;73.67;99788.19;5089997;28;20044;-49
2022/07/30 00:10:07;;;;;;;2.80;1.20;;;;;;;15.89;73.73;99787.34;5087894;28;20063;-50
2022/07/30 00:12:33;;;;;;;3.17;1.10;;;;;;;15.84;73.89;99778.88;5087673;28;20055;-54
2022/07/30 00:14:59;;;;;;;2.80;1.17;;;;;;;15.84;74.30;99788.53;5079617;28;20570;-54
2022/07/30 00:17:25;;;;;;;4.13;1.20;;;;;;;15.59;74.26;99750.53;5096377;28;20036;-51
2022/07/30 00:19:51;;;;;;;1.45;1.15;;;;;;;15.83;74.61;99792.06;5089233;28;21089;-50
2022/07/30 00:22:16;;;;;;;2.08;0.90;;;;;;;15.84;74.71;99793.78;5089898;28;20040;-48
2022/07/30 00:24:42;;;;;;;2.78;1.02;;;;;;;15.86;74.91;99786.69;5095872;28;20550;-54
2022/07/30 00:27:08;;;;;;;1.38;0.90;;;;;;;15.84;75.31;99792.00;5093961;28;20534;-54
2022/07/30 00:29:34;;;;;;;1.40;0.93;;;;;;;15.60;75.51;99760.06;5081306;28;20424;-53
2022/07/30 00:31:59;;;;;;;2.13;0.93;;;;;;;15.80;75.77;99785.22;5102289;28;20039;-49
2022/07/30 00:34:25;;;;;;;2.03;1.20;;;;;;;15.77;75.89;99785.38;5092154;28;20043;-50
2022/07/30 00:36:51;;;;;;;2.60;1.10;;;;;;;15.53;76.05;99763.13;5086009;28;20032;-52
2022/07/30 00:39:17;;;;;;;3.00;1.40;;;;;;;15.71;76.09;99787.47;5090765;28;20598;-52
2022/07/30 00:41:59;;;;;;;1.05;0.82;;;;;;;15.67;76.41;99794.66;5089639;28;20092;-51
2022/07/30 00:44:25;;;;;;;3.88;1.15;;;;;;;15.31;76.33;99741.56;5097513;28;20069;-52
2022/07/30 00:46:51;;;;;;;1.35;0.90;;;;;;;15.58;76.67;99793.41;5104958;28;20118;-50
2022/07/30 00:49:17;;;;;;;1.45;1.00;;;;;;;15.57;77.32;99794.31;5103720;28;20920;-50
2022/07/30 00:51:43;;;;;;;2.47;0.70;;;;;;;15.55;77.20;99787.44;5093273;28;20126;-57
2022/07/30 00:54:09;;;;;;;1.63;1.00;;;;;;;15.51;77.65;99789.38;5075229;28;20539;-55
2022/07/30 00:56:35;;;;;;;1.50;0.90;;;;;;;15.30;77.63;99758.19;5090522;28;20044;-56
2022/07/30 00:59:01;;;;;;;2.55;1.33;;;;;;;15.47;78.04;99784.38;5113675;27;20118;-53
2022/07/30 01:01:27;;;;;;;1.95;1.10;;;;;;;15.22;78.23;99745.50;5104823;28;20455;-51
2022/07/30 01:03:53;;;;;;;3.97;1.00;;;;;;;15.45;78.12;99787.06;5096571;28;20048;-54
2022/07/30 01:06:19;;;;;;;2.55;1.00;;;;;;;15.42;78.42;99775.91;5094721;28;20040;-57
2022/07/30 01:08:45;;;;;;;1.92;1.10;;;;;;;15.39;78.38;99782.13;5112316;28;20031;-54
2022/07/30 01:11:11;;;;;;;3.13;1.23;;;;;;;15.32;78.94;99777.31;5112255;28;20051;-56
2022/07/30 01:13:42;;;;;;;3.33;1.05;;;;;;;15.35;78.81;99775.38;5113377;28;20076;-56
2022/07/30 01:16:08;;;;;;;2.22;1.20;;;;;;;15.36;79.25;99777.06;5106600;28;20507;-57
2022/07/30 01:21:26;;;;;;;1.98;1.10;;;;;;;15.35;79.62;99772.75;5111325;28;20046;-58
2022/07/30 01:23:53;;;;;;;2.03;1.08;;;;;;;15.26;79.61;99774.09;5112127;28;20466;-55
2022/07/30 01:26:19;;;;;;;1.25;1.00;;;;;;;15.25;80.23;99785.47;5079989;28;20040;-56
2022/07/30 01:28:48;;;;;;;4.53;1.25;;;;;;;15.22;80.22;99776.94;5091013;28;20067;-52
2022/07/30 01:31:15;;;;;;;2.00;1.40;;;;;;;15.22;80.32;99779.56;5075373;28;20065;-55
2022/07/30 01:33:44;;;;;;;3.95;1.15;;;;;;;15.20;80.37;99781.41;5074570;28;20051;-55
2022/07/30 01:36:13;;;;;;;3.58;1.17;;;;;;;15.17;80.83;99776.34;5057248;28;20044;-52
2022/07/30 01:38:40;;;;;;;2.45;1.15;;;;;;;15.02;80.97;99758.81;5111696;28;20059;-55
2022/07/30 01:41:07;;;;;;;2.83;1.10;;;;;;;15.15;81.04;99778.19;5111547;28;20461;-53
2022/07/30 01:43:34;;;;;;;2.58;1.02;;;;;;;15.15;80.87;99775.56;5111536;28;20073;-49
2022/07/30 01:46:02;;;;;;;3.22;0.90;;;;;;;14.99;81.15;99746.69;5084086;28;20047;-56
2022/07/30 01:48:28;;;;;;;3.63;1.33;;;;;;;15.18;81.06;99778.84;5071218;28;20079;-53
2022/07/30 01:50:57;;;;;;;2.75;1.13;;;;;;;15.21;81.10;99778.72;5087705;28;20040;-56
2022/07/30 01:53:25;;;;;;;2.42;2.00;;;;;;;15.21;80.79;99775.25;5103338;28;20040;-51
2022/07/30 01:55:53;;;;;;;3.45;1.10;;;;;;;15.25;80.76;99784.63;5091287;28;20039;-56
2022/07/30 01:58:22;;;;;;;1.92;1.13;;;;;;;15.25;80.87;99784.63;5089735;28;20032;-54
2022/07/30 02:00:54;;;;;;;3.63;1.27;;;;;;;15.24;80.94;99783.78;5079878;28;20068;-56
2022/07/30 02:03:21;;;;;;;1.92;1.00;;;;;;;15.23;80.96;99789.94;5070610;28;20037;-55
2022/07/30 02:05:56;;;;;;;2.47;1.00;;;;;;;15.22;80.65;99787.44;5071536;28;20127;-56
2022/07/30 02:08:44;;;;;;;1.95;1.13;;;;;;;15.21;80.83;99786.56;5093367;28;20056;-53
2022/07/30 02:14:28;;;;;;;3.58;1.30;;;;;;;15.23;80.44;99783.84;5111096;28;20534;-56
2022/07/30 02:16:57;;;;;;;2.47;1.20;;;;;;;15.24;80.46;99786.41;5087012;28;20500;-55
2022/07/30 02:19:25;;;;;;;2.80;1.10;;;;;;;15.23;80.12;99782.09;5053950;28;20417;-55
2022/07/30 02:22:07;;;;;;;2.87;1.10;;;;;;;15.29;80.26;99786.16;5064151;28;20487;-53
2022/07/30 02:24:36;;;;;;;1.38;0.90;;;;;;;15.29;80.16;99794.03;5074072;28;20282;-54
2022/07/30 02:27:13;;;;;;;3.33;1.00;;;;;;;15.31;80.34;99796.56;5107581;28;20047;-55
2022/07/30 02:29:41;;;;;;;3.25;0.85;;;;;;;15.12;80.19;99749.53;5104050;28;20040;-52
2022/07/30 02:32:11;;;;;;;1.98;1.20;;;;;;;15.34;80.17;99793.78;5090300;28;20512;-57
2022/07/30 02:34:40;;;;;;;3.25;1.52;;;;;;;15.37;79.89;99793.63;5072746;28;20524;-54
2022/07/30 02:37:08;;;;;;;2.95;1.05;;;;;;;15.36;79.79;99790.16;5090000;28;20040;-56
2022/07/30 02:39:36;;;;;;;1.52;1.17;;;;;;;15.39;79.68;99808.34;5073738;28;20108;-55
2022/07/30 02:42:03;;;;;;;3.42;1.20;;;;;;;15.34;79.71;99799.00;5090250;28;20457;-54
2022/07/30 02:44:31;;;;;;;2.58;1.17;;;;;;;15.42;79.97;99805.56;5073508;28;20039;-55
2022/07/30 02:46:57;;;;;;;3.63;1.10;;;;;;;15.47;79.64;99810.56;5090810;28;20036;-54
2022/07/30 02:49:30;;;;;;;3.20;1.30;;;;;;;15.48;79.49;99810.50;5089643;28;20420;-57
2022/07/30 02:51:57;;;;;;;2.40;1.20;;;;;;;15.27;79.36;99783.66;5056359;28;20511;-56
2022/07/30 02:54:25;;;;;;;5.28;1.40;;;;;;;15.48;79.02;99809.66;5073077;28;20044;-56
2022/07/30 02:56:53;;;;;;;6.75;1.23;;;;;;;15.50;79.23;99810.41;5073313;28;20557;-55
2022/07/30 02:59:19;;;;;;;1.90;1.30;;;;;;;15.54;78.83;99811.97;5072249;28;20073;-56
2022/07/30 03:01:46;;;;;;;7.38;1.42;;;;;;;15.56;79.05;99813.56;5068642;28;20036;-51
2022/07/30 03:04:13;;;;;;;2.85;1.33;;;;;;;15.61;78.71;99813.34;5071359;28;20607;-54
2022/07/30 03:06:39;;;;;;;5.13;1.30;;;;;;;15.67;78.17;99815.63;5090933;28;20043;-51
2022/07/30 03:09:06;;;;;;;6.65;1.60;;;;;;;15.71;78.29;99821.56;5072867;28;20130;-55
2022/07/30 03:11:33;;;;;;;3.80;1.27;;;;;;;15.75;77.80;99817.88;5089092;28;20044;-56
2022/07/30 03:14:00;;;;;;;2.47;1.50;;;;;;;15.81;77.87;99807.88;5089302;28;20043;-55
2022/07/30 03:16:27;;;;;;;3.88;1.50;;;;;;;15.81;77.64;99810.50;5072126;28;20070;-57
2022/07/30 03:18:53;;;;;;;4.10;1.67;;;;;;;15.82;77.54;99814.81;5072524;28;20058;-54
2022/07/30 03:21:24;;;;;;;3.20;1.30;;;;;;;15.87;77.24;99809.31;5072232;28;20515;-53
2022/07/30 03:23:50;;;;;;;5.45;1.42;;;;;;;15.94;77.43;99811.53;5055409;28;20036;-56
2022/07/30 03:26:19;;;;;;;4.07;1.20;;;;;;;15.92;76.93;99800.28;5072587;28;20588;-54
2022/07/30 03:28:47;;;;;;;2.95;1.20;;;;;;;15.98;76.86;99813.06;5072729;28;20526;-58
2022/07/30 03:31:15;;;;;;;4.18;1.20;;;;;;;16.00;76.23;99819.09;5068631;28;20127;-53
2022/07/30 03:33:41;;;;;;;3.03;1.42;;;;;;;16.04;75.80;99819.75;5085637;28;20098;-53
2022/07/30 03:36:08;;;;;;;1.75;1.02;;;;;;;15.99;75.57;99808.66;5085411;28;20492;-56
2022/07/30 03:38:38;;;;;;;2.55;1.30;;;;;;;16.14;75.39;99820.94;5072583;28;20046;-57
2022/07/30 03:41:09;;;;;;;5.45;1.13;;;;;;;16.18;75.23;99825.06;5088376;28;20126;-55
2022/07/30 03:43:37;;;;;;;1.75;1.17;;;;;;;16.04;74.04;99796.16;5089346;28;20036;-52
2022/07/30 03:46:06;;;;;;;2.97;1.10;;;;;;;16.25;73.36;99821.19;5076571;28;20045;-55
2022/07/30 03:48:35;;;;;;;6.13;1.20;;;;;;;16.32;72.95;99816.47;5070725;28;20048;-56
2022/07/30 03:51:03;;;;;;;4.15;1.52;;;;;;;16.37;73.35;99819.69;5055000;28;20058;-56
2022/07/30 03:53:30;;;;;;;5.15;1.10;;;;;;;16.39;73.15;99820.41;5072210;28;20039;-56
2022/07/30 03:56:14;;;;;;;4.07;1.58;;;;;;;16.41;72.63;99821.19;5089762;28;20082;-57
2022/07/30 03:59:02;;;;;;;2.55;1.00;;;;;;;16.46;72.18;99822.63;5086472;28;20139;-56
2022/07/30 04:01:28;;;;;;;6.75;1.38;;;;;;;16.52;71.72;99824.91;5085485;28;20080;-55
2022/07/30 04:04:06;;;;;;;7.97;4.60;;;;;;;16.53;71.61;99823.13;5090151;28;20426;-56
2022/07/30 04:06:38;;;;;;;2.38;1.10;;;;;;;16.60;71.01;99823.66;5088610;28;20040;-54
2022/07/30 04:09:08;;;;;;;1.98;1.13;;;;;;;16.62;71.39;99822.63;5089373;28;20040;-53
2022/07/30 04:11:34;;;;;;;4.85;1.40;;;;;;;16.51;71.02;99796.13;5101801;28;20055;-56
2022/07/30 04:14:05;;;;;;;7.30;1.27;;;;;;;16.56;71.10;99788.81;5092283;28;20035;-54
2022/07/30 04:17:02;;;;;;;2.25;1.20;;;;;;;16.78;70.68;99823.47;5080877;28;20139;-55
2022/07/30 04:19:36;;;;;;;4.63;1.33;;;;;;;16.82;70.28;99818.88;5086307;28;20044;-55
2022/07/30 04:22:02;;;;;;;3.15;1.00;;;;;;;16.85;69.79;99830.03;5088254;28;20114;-56
2022/07/30 04:24:30;;;;;;;4.57;1.83;;;;;;;16.90;69.35;99824.53;5102476;28;20039;-53
2022/07/30 04:26:59;;;;;;;1.13;0.80;;;;;;;16.99;69.09;99826.63;5097889;28;20043;-56
2022/07/30 04:29:25;;;;;;;8.20;2.63;;;;;;;16.87;68.95;99793.19;5094764;28;20047;-57
2022/07/30 04:31:53;;;;;;;2.47;1.00;;;;;;;17.13;68.41;99828.44;5093280;28;20043;-56
2022/07/30 04:34:47;;;;;;;3.17;1.10;;;;;;;17.22;67.79;99830.50;5090567;28;20044;-52
2022/07/30 04:37:18;;;;;;;2.47;0.68;;;;;;;17.25;66.57;99825.94;5079907;28;20039;-55
2022/07/30 04:39:44;;;;;;;3.30;0.93;;;;;;;17.26;65.36;99827.63;5075792;28;20039;-56
2022/07/30 04:42:11;;;;;;;3.42;0.70;;;;;;;17.29;64.60;99827.44;5092447;28;20040;-54
2022/07/30 04:44:37;;;;;;;1.67;0.90;;;;;;;17.38;63.79;99831.28;5092730;28;20050;-54
2022/07/30 04:47:24;;;;;;;1.35;0.90;;;;;;;17.46;63.69;99839.56;5091829;28;20046;-57
2022/07/30 04:50:09;;;;;;;2.60;1.00;;;;;;;17.53;63.43;99840.91;5094626;28;20044;-54
2022/07/30 04:52:35;;;;;;;1.10;0.73;;;;;;;17.58;62.55;99833.59;5094477;28;20632;-56
2022/07/30 04:55:05;;;;;;;2.08;0.75;;;;;;;17.66;62.48;99843.66;5077445;28;20044;-56
2022/07/30 04:57:32;;;;;;;3.33;1.05;;;;;;;17.69;62.23;99833.78;5093181;28;20063;-56
2022/07/30 04:59:58;;;;;;;1.65;1.00;;;;;;;17.75;61.41;99837.81;5091275;28;20040;-57
2022/07/30 05:02:27;;;;;;;1.33;0.77;;;;;;;17.82;60.28;99844.41;5088676;28;20067;-57
2022/07/30 05:04:54;;;;;;;1.73;1.00;;;;;;;17.85;59.52;99844.22;5081100;28;20056;-57
2022/07/30 05:07:20;;;;;;;1.10;0.70;;;;;;;17.91;59.93;99840.34;5091509;28;20043;-57
2022/07/30 05:09:47;;;;;;;0.77;0.60;;;;;;;17.89;59.96;99821.22;5059089;28;20055;-56
2022/07/30 05:12:13;;;;;;;1.42;0.75;;;;;;;18.08;59.47;99841.00;5075177;28;20085;-54
2022/07/30 05:14:39;;;;;;;1.85;0.73;;;;;;;17.96;58.74;99818.09;5104514;28;20070;-56
2022/07/30 05:17:04;;;;;;;3.20;1.00;;;;;;;18.15;57.78;99847.59;5081204;28;20427;-57
2022/07/30 05:19:34;;;;;;;1.35;1.10;;;;;;;18.23;57.45;99854.97;5091603;28;20040;-56
2022/07/30 05:22:01;;;;;;;1.48;0.75;;;;;;;18.29;57.11;99844.06;5091764;28;20043;-52
2022/07/30 05:24:28;;;;;;;1.33;0.50;;;;;;;18.34;56.12;99849.91;5092612;28;20089;-57
2022/07/30 05:26:55;;;;;;;1.95;0.70;;;;;;;18.40;56.15;99851.28;5092046;28;20040;-54
2022/07/30 05:29:24;;;;;;;4.63;0.63;;;;;;;18.47;55.67;99855.22;5089253;28;20581;-56
2022/07/30 05:31:55;;;;;;;0.85;0.50;;;;;;;18.56;55.19;99858.16;5083248;28;20039;-53
2022/07/30 05:34:21;;;;;;;1.42;0.80;;;;;;;18.63;54.31;99860.41;5091116;28;20520;-53
2022/07/30 05:36:47;;;;;;;2.13;0.75;;;;;;;18.73;54.33;99850.94;5089807;28;20044;-54
2022/07/30 05:39:16;;;;;;;2.90;0.77;;;;;;;18.85;54.48;99855.41;5097490;28;20507;-56
2022/07/30 05:42:00;;;;;;;4.28;1.60;;;;;;;18.88;54.67;99845.53;5111823;28;20043;-57
2022/07/30 05:44:32;;;;;;;4.72;1.40;;;;;;;19.07;54.62;99860.94;5109504;28;20112;-56
2022/07/30 05:46:59;;;;;;;0.88;0.70;;;;;;;19.20;54.15;99861.00;5097069;28;20512;-55
2022/07/30 05:49:24;;;;;;;0.75;0.50;;;;;;;19.18;53.38;99847.06;5091117;28;20051;-55
2022/07/30 05:51:52;;;;;;;1.98;0.70;;;;;;;19.34;51.87;99867.00;5091075;28;20876;-55
2022/07/30 05:54:19;;;;;;;5.35;0.98;;;;;;;19.33;51.24;99860.06;5092819;28;20075;-55
2022/07/30 05:56:54;;;;;;;2.03;0.88;;;;;;;19.49;51.48;99870.44;5106103;28;20068;-55
2022/07/30 05:59:35;;;;;;;1.80;0.98;;;;;;;19.66;51.67;99858.72;5100902;28;20047;-54
2022/07/30 06:02:07;;;;;;;2.03;1.38;;;;;;;19.79;51.41;99863.03;5086380;28;20035;-56
2022/07/30 06:05:08;;;;;;;2.30;0.98;;;;;;;19.92;51.47;99868.34;5088624;28;20051;-57
2022/07/30 06:07:34;;;;;;;1.58;0.90;;;;;;;20.08;51.64;99862.81;5100284;28;20071;-57
2022/07/30 06:10:03;;;;;;;1.85;0.80;;;;;;;20.12;51.00;99838.72;5070406;28;20051;-55
2022/07/30 06:12:29;;;;;;;1.95;0.70;;;;;;;20.51;50.90;99852.72;5074477;28;20504;-56
2022/07/30 06:14:56;;;;;;;1.65;0.80;;;;;;;20.80;50.42;99859.34;5092394;28;20484;-55
2022/07/30 06:17:33;;;;;;;3.28;0.73;;;;;;;20.88;48.81;99858.78;5090493;28;20579;-53
2022/07/30 06:20:13;;;;;;;2.20;0.60;;;;;;;20.94;48.06;99858.31;5089312;28;20040;-59
2022/07/30 06:23:01;;;;;;;3.15;0.70;;;;;;;21.25;47.33;99862.19;5090484;28;20048;-57
2022/07/30 06:25:50;;;;;;;;;;;;;;;21.48;46.87;99854.19;5090375;28;20130;-59
2022/07/30 06:28:18;;;;;;;5.47;1.02;;;;;;;21.78;46.59;99855.41;5088608;28;19930;-52
2022/07/30 06:30:44;;;;;;;2.83;1.08;;;;;;;22.22;46.22;99851.97;5089963;28;20067;-57
2022/07/30 06:33:11;;;;;;;1.25;0.70;;;;;;;22.68;45.57;99857.88;5072123;28;20050;-54
2022/07/30 06:35:37;;;;;;;2.80;0.93;;;;;;;22.82;45.21;99853.31;5089724;28;20032;-58
2022/07/30 06:38:03;;;;;;;3.78;0.80;;;;;;;22.95;45.15;99856.63;5090173;28;20530;-57
2022/07/30 06:40:30;;;;;;;2.72;0.77;;;;;;;22.94;43.49;99853.13;5082643;28;20036;-58
2022/07/30 06:43:18;;;;;;;1.10;0.77;;;;;;;24.30;42.30;99860.94;5102394;28;20054;-57
2022/07/30 06:45:59;;;;;;;2.50;1.00;;;;;;;25.33;41.03;99856.88;5090104;28;20047;-60
2022/07/30 06:48:36;;;;;;;2.67;0.70;;;;;;;26.71;38.84;99856.88;5106592;27;20035;-55
2022/07/30 06:51:08;;;;;;;1.20;0.80;;;;;;;27.56;37.22;99839.47;5089719;28;20040;-56
2022/07/30 06:53:37;;;;;;;5.15;0.95;;;;;;;27.33;37.03;99863.97;5057220;28;20892;-59
2022/07/30 06:56:24;;;;;;;3.17;1.17;;;;;;;25.97;37.00;99856.97;5056076;28;20060;-58
2022/07/30 06:58:54;;;;;;;1.38;1.00;;;;;;;24.60;38.59;99860.06;5089757;28;20128;-59
2022/07/30 07:01:42;;;;;;;;;;;;;;;24.78;38.79;99855.72;5061757;28;20434;-61
2022/07/30 07:04:08;;;;;;;2.30;0.90;;;;;;;25.59;38.18;99857.13;5089571;28;19915;-59
2022/07/30 07:06:37;;;;;;;1.48;0.95;;;;;;;25.25;38.60;99854.06;5088598;28;20048;-59
2022/07/30 07:09:04;;;;;;;1.40;0.93;;;;;;;26.13;36.62;99817.22;5085836;28;20049;-60
2022/07/30 07:11:37;;;;;;;3.10;1.10;;;;;;;28.03;33.88;99845.25;5088403;28;20060;-58
2022/07/30 07:14:08;;;;;;;1.23;1.10;;;;;;;28.72;33.40;99860.22;5088111;28;20135;-57
2022/07/30 07:16:35;;;;;;;1.80;0.80;;;;;;;28.75;33.63;99854.56;5088049;28;20044;-58
2022/07/30 07:19:20;;;;;;;4.70;1.00;;;;;;;27.42;35.12;99861.38;5086755;28;20082;-59
2022/07/30 07:21:47;;;;;;;1.55;1.00;;;;;;;27.84;34.45;99854.34;5088047;28;20031;-54
2022/07/30 07:24:13;;;;;;;2.10;1.20;;;;;;;29.79;32.02;99845.66;5088913;28;20492;-61
2022/07/30 07:27:06;;;;;;;3.50;1.10;;;;;;;30.80;29.22;99867.22;5056844;28;20142;-62
2022/07/30 07:29:32;;;;;;;1.65;1.20;;;;;;;32.30;27.83;99868.00;5055494;28;20058;-63
2022/07/30 07:32:01;;;;;;;2.20;1.10;;;;;;;32.29;25.95;99868.22;5072082;28;20040;-61
2022/07/30 07:34:27;;;;;;;2.50;1.30;;;;;;;32.59;25.78;99853.69;5092008;28;20042;-64
2022/07/30 07:36:54;;;;;;;1.95;1.17;;;;;;;33.49;24.70;99863.91;5092526;28;20512;-63
2022/07/30 07:39:22;;;;;;;3.50;1.70;;;;;;;33.17;24.11;99833.81;5088997;28;20066;-62
2022/07/30 07:41:49;;;;;;;2.73;1.47;;;;;;;34.02;24.14;99854.31;5081364;28;20044;-63
2022/07/30 07:44:18;;;;;;;3.35;0.90;;;;;;;33.06;25.78;99858.53;5092164;28;20286;-63
2022/07/30 07:46:44;;;;;;;2.88;0.73;;;;;;;32.04;27.15;99847.97;5077684;28;20530;-60
2022/07/30 07:49:10;;;;;;;3.40;1.40;;;;;;;31.64;27.74;99847.41;5068809;28;20056;-64
2022/07/30 07:51:43;;;;;;;1.55;1.20;;;;;;;33.65;25.41;99852.81;5088366;28;20143;-62
2022/07/30 07:54:12;;;;;;;2.17;1.00;;;;;;;35.35;23.25;99845.56;5088977;28;20059;-61
2022/07/30 07:56:40;;;;;;;7.57;1.40;;;;;;;35.02;22.96;99842.81;5088888;28;20463;-61
2022/07/30 07:59:09;;;;;;;3.05;1.00;;;;;;;35.27;22.58;99841.22;5089307;28;20115;-61
2022/07/30 08:01:35;;;;;;;2.90;1.20;;;;;;;33.57;23.50;99845.72;5083630;28;20558;-63
2022/07/30 08:04:16;;;;;;;3.20;0.80;;;;;;;30.88;25.68;99839.50;5087978;28;20040;-63
2022/07/30 08:07:01;;;;;;;1.00;0.80;;;;;;;28.47;28.77;99829.91;5089834;28;20063;-62
2022/07/30 08:09:38;;;;;;;4.05;1.02;;;;;;;28.45;28.86;99823.88;5073072;28;20469;-61
2022/07/30 08:12:12;;;;;;;3.22;0.90;;;;;;;30.02;27.67;99832.38;5065232;28;20081;-64
2022/07/30 08:14:56;;;;;;;1.90;1.00;;;;;;;29.85;28.60;99828.03;5094337;28;20035;-60
2022/07/30 08:17:41;;;;;;;4.32;1.13;;;;;;;28.90;30.08;99820.78;5093629;28;20068;-63
2022/07/30 08:20:13;;;;;;;3.75;1.95;;;;;;;27.99;31.88;99801.97;5093041;28;20036;-59
2022/07/30 08:22:40;;;;;;;7.20;1.10;;;;;;;27.57;32.93;99827.78;5092208;28;20051;-59
2022/07/30 08:25:06;;;;;;;4.20;1.02;;;;;;;26.77;33.78;99831.44;5092282;28;20530;-61
2022/07/30 08:27:33;;;;;;;1.73;0.80;;;;;;;26.44;34.21;99819.59;5092884;28;20797;-61
2022/07/30 08:30:03;;;;;;;1.30;0.60;;;;;;;26.20;34.08;99812.13;5075688;28;20044;-62
2022/07/30 08:32:29;;;;;;;2.22;1.13;;;;;;;26.56;33.41;99824.56;5091985;28;20044;-63
2022/07/30 08:34:57;;;;;;;1.15;0.70;;;;;;;27.00;32.91;99827.34;5094718;28;20126;-63
2022/07/30 08:37:23;;;;;;;1.45;0.82;;;;;;;26.63;33.34;99818.63;5094932;28;20199;-60
2022/07/30 08:39:49;;;;;;;3.00;1.00;;;;;;;26.42;33.18;99818.91;5097719;28;20212;-58
2022/07/30 08:42:15;;;;;;;2.20;1.10;;;;;;;26.34;32.60;99819.66;5074750;28;20039;-58
2022/07/30 08:44:44;;;;;;;2.83;1.10;;;;;;;28.69;29.15;99809.69;5094992;28;20129;-64
2022/07/30 08:47:11;;;;;;;2.22;1.00;;;;;;;30.57;25.53;99818.88;5101149;28;20028;-61
2022/07/30 08:50:04;;;;;;;3.83;1.30;;;;;;;32.42;24.49;99789.47;5081459;28;20063;-58
2022/07/30 08:52:37;;;;;;;1.90;1.25;;;;;;;33.81;23.07;99824.75;5089409;28;20476;-59
2022/07/30 08:55:04;;;;;;;2.35;1.00;;;;;;;34.67;21.47;99826.75;5075654;28;20047;-60
2022/07/30 08:57:33;;;;;;;2.47;1.10;;;;;;;34.56;21.68;99819.25;5084748;28;20053;-57
2022/07/30 09:00:01;;;;;;;2.78;1.30;;;;;;;36.25;20.35;99828.56;5055588;28;20040;-59
2022/07/30 09:02:31;;;;;;;4.57;1.08;;;;;;;35.88;19.99;99793.06;5088564;28;20086;-58
2022/07/30 09:05:06;;;;;;;1.73;1.25;;;;;;;34.18;20.69;99809.97;5095029;28;20059;-60
2022/07/30 09:07:33;;;;;;;3.38;0.90;;;;;;;34.22;20.45;99819.34;5104200;27;20052;-59
2022/07/30 09:10:00;;;;;;;1.73;1.30;;;;;;;34.92;20.46;99812.69;5086769;28;20530;-58
2022/07/30 09:12:42;;;;;;;2.35;1.30;;;;;;;36.89;19.50;99817.59;5086847;28;20473;-54
2022/07/30 09:15:18;;;;;;;2.78;1.30;;;;;;;37.95;18.08;99793.00;5091221;28;20113;-58
2022/07/30 09:17:48;;;;;;;2.13;1.08;;;;;;;39.34;17.14;99811.75;5090327;28;20058;-56
2022/07/30 09:20:15;;;;;;;3.15;1.40;;;;;;;39.59;17.32;99819.66;5093578;28;20088;-56
2022/07/30 09:22:47;;;;;;;4.97;1.50;;;;;;;39.31;16.24;99812.16;5088280;28;20516;-58
2022/07/30 09:25:42;;;;;;;2.75;1.50;;;;;;;40.05;16.23;99807.88;5085748;28;20558;-60
2022/07/30 09:28:29;;;;;;;1.58;1.48;;;;;;;40.38;15.62;99805.31;5080869;28;20040;-58
2022/07/30 09:31:14;;;;;;;1.75;1.40;;;;;;;41.00;15.38;99808.06;5089356;28;20054;-59
2022/07/30 09:34:03;;;;;;;2.42;0.90;;;;;;;39.76;15.46;99809.69;5070227;28;20538;-58
2022/07/30 09:37:19;;;;;;;1.05;0.95;;;;;;;39.62;15.82;99806.38;5089696;28;20537;-56
2022/07/30 09:40:17;;;;;;;1.50;0.70;;;;;;;37.25;17.70;99790.63;5087022;28;20048;-59
2022/07/30 09:43:08;;;;;;;3.15;1.83;;;;;;;36.90;18.43;99808.41;5093102;28;20039;-58
2022/07/30 09:45:35;;;;;;;2.33;1.38;;;;;;;38.25;16.93;99809.38;5090596;28;20036;-56
2022/07/30 09:48:02;;;;;;;6.20;2.00;;;;;;;40.19;16.72;99810.13;5079655;28;20042;-53
2022/07/30 09:50:28;;;;;;;5.03;1.73;;;;;;;41.87;15.22;99813.81;5095476;27;20055;-57
2022/07/30 09:53:08;;;;;;;3.50;1.52;;;;;;;41.28;16.13;99818.09;5072913;28;20060;-52
2022/07/30 09:55:35;;;;;;;3.17;1.20;;;;;;;39.52;17.16;99810.81;5082622;28;20396;-58
2022/07/30 09:58:05;;;;;;;3.78;2.08;;;;;;;37.36;18.80;99805.34;5080146;28;20040;-59
2022/07/30 10:00:36;;;;;;;1.50;1.00;;;;;;;35.73;19.42;99797.91;5090787;28;20131;-57
2022/07/30 10:03:28;;;;;;;1.50;1.20;;;;;;;34.17;20.97;99802.91;5087574;28;20534;-56
2022/07/30 10:06:13;;;;;;;2.35;1.08;;;;;;;32.55;21.36;99800.41;5081319;28;20038;-58
2022/07/30 10:08:48;;;;;;;5.88;3.45;;;;;;;34.43;20.21;99798.47;5083188;28;20486;-53
2022/07/30 10:11:24;;;;;;;4.88;2.63;;;;;;;36.29;19.16;99798.13;5087474;28;20048;-57
2022/07/30 10:13:56;;;;;;;5.15;1.98;;;;;;;34.75;20.21;99802.28;5097035;28;20055;-59
2022/07/30 10:16:26;;;;;;;6.05;2.40;;;;;;;33.24;21.99;99793.41;5088366;28;20071;-58
2022/07/30 10:18:56;;;;;;;1.95;1.30;;;;;;;33.70;21.47;99795.63;5072581;28;20036;-58
2022/07/30 10:21:34;;;;;;;2.80;1.70;;;;;;;32.54;22.81;99794.19;5087798;28;20043;-58
2022/07/30 10:24:23;;;;;;;3.63;1.45;;;;;;;31.90;23.50;99796.69;5090406;28;20043;-59
2022/07/30 10:27:09;;;;;;;2.95;1.30;;;;;;;34.25;21.27;99787.38;5093270;28;20181;-64
2022/07/30 10:29:45;;;;;;;7.50;5.07;;;;;;;36.05;19.82;99796.13;5089943;28;20051;-64
2022/07/30 10:32:12;;;;;;;4.13;2.05;;;;;;;35.86;20.10;99794.31;5084852;28;20427;-63
2022/07/30 10:34:38;;;;;;;6.35;2.75;;;;;;;34.93;20.62;99790.84;5089853;28;20046;-62
2022/07/30 10:37:04;;;;;;;10.25;6.75;;;;;;;35.23;20.61;99783.19;5103551;28;20071;-62
2022/07/30 10:39:37;;;;;;;4.03;1.85;;;;;;;37.25;18.57;99789.78;5091858;28;20108;-65
2022/07/30 10:42:42;;;;;;;5.20;3.03;;;;;;;38.37;17.08;99800.22;5104762;28;20036;-62
2022/07/30 10:45:49;;;;;;;21.45;14.60;;;;;;;39.24;16.55;99803.31;5096402;28;20043;-62
2022/07/30 10:48:18;;;;;;;7.43;4.55;;;;;;;38.58;16.91;99797.00;5075220;28;20524;-64
2022/07/30 10:50:51;;;;;;;3.53;2.28;;;;;;;39.55;16.08;99804.88;5089752;28;20490;-66
2022/07/30 10:53:37;;;;;;;3.50;3.00;;;;;;;40.20;16.02;99802.75;5077544;28;20042;-61
2022/07/30 10:56:12;;;;;;;1.17;0.68;;;;;;;39.30;15.18;99803.22;5077697;28;20046;-65
2022/07/30 10:59:06;;;;;;;2.13;1.45;;;;;;;38.07;15.17;99800.19;5091286;28;20134;-62
2022/07/30 11:01:47;;;;;;;3.50;1.40;;;;;;;38.73;15.33;99798.50;5072411;28;20057;-67
2022/07/30 11:04:24;;;;;;;6.50;4.55;;;;;;;40.40;14.78;99802.34;5090988;28;20047;-63
2022/07/30 11:06:51;;;;;;;2.05;1.48;;;;;;;39.75;14.16;99778.09;5089106;28;20043;-67
2022/07/30 11:09:38;;;;;;;2.78;1.75;;;;;;;39.78;14.70;99783.91;5094357;28;20097;-69
2022/07/30 11:12:05;;;;;;;5.32;3.88;;;;;;;40.23;14.70;99775.03;5072916;28;20884;-64
2022/07/30 11:14:46;;;;;;;2.25;1.13;;;;;;;38.33;15.51;99774.56;5078175;28;20519;-62
2022/07/30 11:17:16;;;;;;;4.20;2.92;;;;;;;36.76;17.36;99769.72;5077936;28;20076;-65
2022/07/30 11:20:01;;;;;;;8.80;4.55;;;;;;;35.74;18.36;99768.97;5093937;28;20031;-65
2022/07/30 11:22:40;;;;;;;3.42;2.08;;;;;;;35.95;18.66;99777.66;5083590;28;20076;-64
2022/07/30 11:25:31;;;;;;;3.35;1.70;;;;;;;37.52;17.52;99782.22;5082006;28;20118;-61
2022/07/30 11:27:59;;;;;;;4.10;2.22;;;;;;;38.99;15.65;99771.69;5086660;28;20428;-63
2022/07/30 11:30:28;;;;;;;4.57;1.95;;;;;;;40.29;14.52;99782.25;5088238;28;20044;-63
2022/07/30 11:32:55;;;;;;;7.97;4.53;;;;;;;41.42;14.70;99776.53;5085935;28;20594;-63
2022/07/30 11:35:28;;;;;;;1.70;1.60;;;;;;;41.36;13.36;99780.28;5090538;28;20043;-65
2022/07/30 11:38:12;;;;;;;3.25;1.80;;;;;;;40.12;13.90;99773.16;5091950;28;20075;-63
2022/07/30 11:41:00;;;;;;;1.77;1.67;;;;;;;40.33;13.96;99780.69;5095699;28;20050;-65
2022/07/30 11:43:31;;;;;;;5.82;2.75;;;;;;;40.90;13.87;99778.72;5087171;28;20086;-64
2022/07/30 11:46:16;;;;;;;21.67;9.73;;;;;;;39.26;15.42;99765.78;5083606;28;20044;-65
2022/07/30 11:48:54;;;;;;;5.43;2.67;;;;;;;37.31;16.87;99761.78;5080876;28;20040;-66
2022/07/30 11:51:20;;;;;;;2.25;1.60;;;;;;;36.79;16.58;99736.78;5079827;28;20035;-64
2022/07/30 11:54:02;;;;;;;9.77;5.07;;;;;;;39.07;15.93;99759.66;5085434;28;20074;-64
2022/07/30 11:56:28;;;;;;;6.88;3.10;;;;;;;40.46;14.89;99761.28;5097292;28;20515;-65
2022/07/30 11:59:03;;;;;;;;;;;;;;;40.51;14.46;99763.31;5095498;28;20063;-62
2022/07/30 12:01:29;;;;;;;3.22;2.25;;;;;;;40.72;14.14;99761.78;5083078;28;19921;-65